Cosco Melbourne — V7IF5 — position and weather

sailwx.info

Track history (hours):
 
Tides and Currents Weather Stations Pressure Air Temp Water Temp Dewpoint Dewpoint Depression Visibility Wind Speed Wind Dir Waves Ship Positions

Cosco Melbourne

Last reported at 2015-Jan-25 19:31 UTC. Time now 2015-Jan-25 20:25 UTC.
Position N 34°54' E 139°21'.

Type: Ship (hazmat cat A). MMSI: 538002366.

Date/timePositionNaut miles runAvg speedWind from/ knotsBaromVisibWave heightAir tempDewpointWater temp
2015-Jan-25 19:31N 34°54' E 139°21'1514.3
2015-Jan-25 18:27N 35°03' E 139°37'1213.5
2015-Jan-25 17:33N 35°12' E 139°46'1212.3
2015-Jan-25 16:34N 35°24' E 139°42'3 2.6
2015-Jan-25 15:33N 35°26' E 139°41'0 0.1
2015-Jan-25 14:32N 35°26' E 139°41'0 0.0
2015-Jan-25 13:32N 35°26' E 139°41'0 0.0
2015-Jan-25 12:28N 35°26' E 139°41'0 0.0
2015-Jan-25 11:31N 35°26' E 139°41'0 0.4
2015-Jan-25 10:34N 35°27' E 139°41'10 8.7
2015-Jan-25 09:27N 35°33' E 139°50'5 5.7
2015-Jan-25 08:33N 35°36' E 139°46'0 0.0
2015-Jan-25 07:33N 35°36' E 139°46'0 0.0
2015-Jan-25 06:33N 35°36' E 139°46'0 0.0
2015-Jan-25 05:33N 35°36' E 139°46'0 0.0
2015-Jan-25 04:33N 35°36' E 139°46'0 0.0
2015-Jan-25 03:33N 35°36' E 139°46'0 0.0
2015-Jan-25 02:33N 35°36' E 139°46'0 0.0
2015-Jan-25 01:33N 35°36' E 139°46'0 0.0
2015-Jan-25 00:33N 35°36' E 139°46'0 0.0
2015-Jan-24 23:33N 35°36' E 139°46'1 1.2
2015-Jan-24 22:33N 35°36' E 139°47'10 9.8
2015-Jan-24 21:33N 35°26' E 139°48'1211.7
2015-Jan-24 20:34N 35°14' E 139°47'1211.6
2015-Jan-24 19:33N 35°03' E 139°44'1816.5
2015-Jan-24 18:27N 34°45' E 139°42'  
Track history (hours):
 
Tides and Currents Weather Stations Pressure Air Temp Water Temp Dewpoint Dewpoint Depression Visibility Wind Speed Wind Dir Waves Ship Positions

Cosco Melbourne

Last reported at 2015-Jan-25 19:31 UTC. Time now 2015-Jan-25 20:25 UTC.
Position N 34°54' E 139°21'.

Type: Ship (hazmat cat A). MMSI: 538002366.

Date/timePositionNaut miles runAvg speedWind from/ knotsBaromVisibWave heightAir tempDewpointWater temp
2015-Jan-25 19:31N 34°54' E 139°21'1514.3
2015-Jan-25 18:27N 35°03' E 139°37'1213.5
2015-Jan-25 17:33N 35°12' E 139°46'1212.3
2015-Jan-25 16:34N 35°24' E 139°42'3 2.6
2015-Jan-25 15:33N 35°26' E 139°41'0 0.1
2015-Jan-25 14:32N 35°26' E 139°41'0 0.0
2015-Jan-25 13:32N 35°26' E 139°41'0 0.0
2015-Jan-25 12:28N 35°26' E 139°41'0 0.0
2015-Jan-25 11:31N 35°26' E 139°41'0 0.4
2015-Jan-25 10:34N 35°27' E 139°41'10 8.7
2015-Jan-25 09:27N 35°33' E 139°50'5 5.7
2015-Jan-25 08:33N 35°36' E 139°46'0 0.0
2015-Jan-25 07:33N 35°36' E 139°46'0 0.0
2015-Jan-25 06:33N 35°36' E 139°46'0 0.0
2015-Jan-25 05:33N 35°36' E 139°46'0 0.0
2015-Jan-25 04:33N 35°36' E 139°46'0 0.0
2015-Jan-25 03:33N 35°36' E 139°46'0 0.0
2015-Jan-25 02:33N 35°36' E 139°46'0 0.0
2015-Jan-25 01:33N 35°36' E 139°46'0 0.0
2015-Jan-25 00:33N 35°36' E 139°46'0 0.0
2015-Jan-24 23:33N 35°36' E 139°46'1 1.2
2015-Jan-24 22:33N 35°36' E 139°47'10 9.8
2015-Jan-24 21:33N 35°26' E 139°48'1211.7
2015-Jan-24 20:34N 35°14' E 139°47'1211.6
2015-Jan-24 19:33N 35°03' E 139°44'1816.5
2015-Jan-24 18:27N 34°45' E 139°42'  

Dump ship's entire track history